Terminal Aerodrome Forecast
Issued by NWS

Home | Current Version | Previous Version | Text Only | Print | Product List | Glossary On
Versions: 1 2 3 4 5 6 7 8 9 10 11 12 13
000
FTUS45 KGJT 161731
TAFCNY
TAF
KCNY 161731Z 1618/1718 31009KT P6SM SCT150 OVC200
     FM170200 27004KT P6SM BKN150
     FM171200 VRB03KT P6SM SCT140 SCT250=

USA.gov is the U.S. government's official web portal to all federal, state and local government web resources and services.